createdAt,value
2023-10-22T00:00:37.989Z,13.30
2023-10-22T00:03:06.430Z,13.20
2023-10-22T00:05:34.612Z,13.20
2023-10-22T00:08:02.934Z,13.10
2023-10-22T00:10:31.131Z,13.10
2023-10-22T00:12:59.199Z,13.00
2023-10-22T00:15:29.060Z,13.00
2023-10-22T00:17:57.638Z,12.90
2023-10-22T00:20:25.822Z,12.90
2023-10-22T00:22:53.949Z,12.80
2023-10-22T00:25:22.272Z,12.70
2023-10-22T00:27:51.586Z,12.70
2023-10-22T00:30:19.790Z,12.60
2023-10-22T00:32:49.379Z,12.60
2023-10-22T00:35:18.166Z,12.60
2023-10-22T00:37:46.207Z,12.60
2023-10-22T00:40:16.494Z,12.50
2023-10-22T00:42:44.932Z,12.40
2023-10-22T00:45:13.293Z,12.40
2023-10-22T00:47:41.849Z,12.30
2023-10-22T00:50:13.022Z,12.40
2023-10-22T00:52:43.127Z,12.40
2023-10-22T00:55:14.550Z,12.40
2023-10-22T00:57:43.493Z,12.30
2023-10-22T01:00:13.009Z,12.20
2023-10-22T01:02:41.293Z,12.20
2023-10-22T01:05:11.192Z,12.20
2023-10-22T01:07:40.812Z,12.20
2023-10-22T01:10:10.747Z,12.20
2023-10-22T01:12:40.132Z,12.20
2023-10-22T01:15:10.485Z,12.20
2023-10-22T01:17:38.764Z,12.20
2023-10-22T01:20:10.413Z,12.20
2023-10-22T01:22:40.709Z,12.20
2023-10-22T01:25:11.312Z,12.20
2023-10-22T01:27:40.801Z,12.20
2023-10-22T01:30:09.982Z,12.20
2023-10-22T01:32:38.885Z,12.10
2023-10-22T01:35:08.214Z,12.10
2023-10-22T01:37:37.966Z,12.10
2023-10-22T01:40:06.685Z,12.10
2023-10-22T01:42:36.103Z,12.10
2023-10-22T01:45:04.516Z,12.10
2023-10-22T01:47:32.628Z,12.10
2023-10-22T01:50:00.758Z,12.00
2023-10-22T01:52:28.905Z,12.00
2023-10-22T01:54:56.946Z,12.00
2023-10-22T01:57:25.757Z,12.00
2023-10-22T01:59:55.556Z,12.00
2023-10-22T02:02:24.235Z,12.00
2023-10-22T02:04:52.755Z,11.90
2023-10-22T02:07:20.932Z,12.00
2023-10-22T02:09:49.090Z,12.00
2023-10-22T02:12:17.573Z,12.00
2023-10-22T02:14:45.773Z,12.00
2023-10-22T02:17:15.277Z,11.90
2023-10-22T02:19:43.993Z,11.90
2023-10-22T02:22:13.285Z,11.80
2023-10-22T02:24:42.036Z,11.80
2023-10-22T02:27:10.474Z,11.70
2023-10-22T02:29:38.708Z,11.70
2023-10-22T02:32:07.390Z,11.70
2023-10-22T02:34:38.865Z,11.60
2023-10-22T02:37:07.223Z,11.60
2023-10-22T02:39:35.398Z,11.60
2023-10-22T02:42:04.782Z,11.50
2023-10-22T02:44:32.980Z,11.50
2023-10-22T02:47:01.696Z,11.50
2023-10-22T02:49:31.143Z,11.50
2023-10-22T02:52:04.019Z,11.50
2023-10-22T02:54:32.104Z,11.50
2023-10-22T02:57:00.891Z,11.50
2023-10-22T02:59:29.067Z,11.50
2023-10-22T03:01:57.452Z,11.40
2023-10-22T03:04:26.264Z,11.40
2023-10-22T03:06:55.427Z,11.30
2023-10-22T03:09:24.980Z,11.30
2023-10-22T03:11:53.258Z,11.30
2023-10-22T03:14:22.235Z,11.30
2023-10-22T03:16:50.377Z,11.30
2023-10-22T03:19:20.744Z,11.20
2023-10-22T03:21:48.869Z,11.20
2023-10-22T03:24:18.881Z,11.10
2023-10-22T03:26:48.527Z,11.10
2023-10-22T03:29:17.031Z,11.10
2023-10-22T03:31:45.185Z,11.00
2023-10-22T03:34:14.003Z,11.00
2023-10-22T03:36:42.076Z,11.00
2023-10-22T03:39:10.274Z,11.00
2023-10-22T03:41:38.973Z,10.90
2023-10-22T03:44:08.584Z,10.90
2023-10-22T03:46:36.860Z,10.90
2023-10-22T03:49:05.049Z,10.90
2023-10-22T03:51:33.280Z,10.90
2023-10-22T03:54:01.885Z,10.90
2023-10-22T03:56:29.964Z,11.00
2023-10-22T03:59:00.647Z,11.00
2023-10-22T04:01:30.089Z,11.00
2023-10-22T04:03:58.367Z,11.00
2023-10-22T04:06:26.606Z,11.00
2023-10-22T04:08:54.763Z,10.90
2023-10-22T04:11:22.953Z,10.90
2023-10-22T04:13:51.064Z,10.80
2023-10-22T04:16:19.485Z,10.80
2023-10-22T04:18:49.012Z,10.80
2023-10-22T04:21:18.128Z,10.80
2023-10-22T04:23:47.449Z,10.80
2023-10-22T04:26:15.894Z,10.70
2023-10-22T04:28:45.999Z,10.70
2023-10-22T04:31:14.274Z,10.70
2023-10-22T04:33:42.535Z,10.80
2023-10-22T04:36:20.269Z,10.70
2023-10-22T04:38:49.386Z,10.70
2023-10-22T04:41:17.466Z,10.70
2023-10-22T04:43:45.565Z,10.70
2023-10-22T04:46:13.702Z,10.70
2023-10-22T04:48:41.913Z,10.70
2023-10-22T04:51:10.434Z,10.70
2023-10-22T04:53:40.054Z,10.70
2023-10-22T04:56:08.211Z,10.70
2023-10-22T04:58:36.597Z,10.70
2023-10-22T05:01:04.830Z,10.70
2023-10-22T05:03:33.029Z,10.70
2023-10-22T05:06:09.345Z,10.70
2023-10-22T05:08:41.529Z,10.70
2023-10-22T05:11:14.566Z,10.70
2023-10-22T05:13:42.742Z,10.70
2023-10-22T05:16:11.981Z,10.70
2023-10-22T05:18:40.298Z,10.70
2023-10-22T05:21:09.259Z,10.70
2023-10-22T05:23:37.888Z,10.70
2023-10-22T05:26:10.029Z,10.70
2023-10-22T05:28:38.270Z,10.70
2023-10-22T05:31:14.251Z,10.70
2023-10-22T05:33:42.506Z,10.70
2023-10-22T05:36:16.882Z,10.70
2023-10-22T05:38:45.612Z,10.70
2023-10-22T05:41:20.231Z,10.70
2023-10-22T05:43:48.322Z,10.70
2023-10-22T05:46:16.454Z,10.70
2023-10-22T05:48:44.738Z,10.70
2023-10-22T05:51:12.989Z,10.70
2023-10-22T05:53:41.159Z,10.70
2023-10-22T05:56:09.268Z,10.70
2023-10-22T05:58:39.584Z,10.70
2023-10-22T06:01:07.891Z,10.70
2023-10-22T06:03:36.086Z,10.70
2023-10-22T06:06:04.885Z,10.70
2023-10-22T06:08:33.076Z,10.70
2023-10-22T06:11:04.072Z,10.80
2023-10-22T06:13:32.997Z,10.80
2023-10-22T06:16:03.339Z,10.80
2023-10-22T06:18:31.519Z,10.90
2023-10-22T06:20:59.768Z,10.90
2023-10-22T06:23:27.895Z,11.00
2023-10-22T06:25:56.055Z,11.00
2023-10-22T06:28:24.255Z,11.10
2023-10-22T06:30:52.323Z,11.10
2023-10-22T06:33:21.932Z,11.20
2023-10-22T06:35:50.200Z,11.30
2023-10-22T06:38:18.320Z,11.40
2023-10-22T06:40:46.364Z,11.50
2023-10-22T06:43:14.451Z,11.50
2023-10-22T06:45:42.890Z,11.60
2023-10-22T06:48:11.084Z,11.70
2023-10-22T06:50:42.855Z,11.70
2023-10-22T06:53:10.977Z,11.80
2023-10-22T06:55:43.037Z,11.80
2023-10-22T06:58:11.438Z,11.90
2023-10-22T07:00:39.602Z,12.00
2023-10-22T07:03:07.806Z,12.00
2023-10-22T07:05:36.300Z,12.00
2023-10-22T07:08:06.064Z,12.00
2023-10-22T07:10:36.598Z,12.10
2023-10-22T07:13:04.742Z,12.20
2023-10-22T07:15:33.109Z,12.20
2023-10-22T07:18:01.892Z,12.20
2023-10-22T07:20:32.466Z,12.30
2023-10-22T07:23:02.663Z,12.30
2023-10-22T07:25:32.321Z,12.20
2023-10-22T07:28:00.361Z,12.20
2023-10-22T07:30:28.402Z,12.20
2023-10-22T07:32:56.489Z,12.30
2023-10-22T07:35:24.563Z,12.30
2023-10-22T07:37:52.759Z,12.30
2023-10-22T07:40:21.657Z,12.40
2023-10-22T07:42:51.107Z,12.40
2023-10-22T07:45:19.388Z,12.50
2023-10-22T07:47:47.601Z,12.50
2023-10-22T07:50:15.985Z,12.60
2023-10-22T07:52:44.095Z,12.70
2023-10-22T07:55:12.308Z,12.80
2023-10-22T07:57:40.639Z,12.80
2023-10-22T08:00:11.667Z,12.80
2023-10-22T08:02:42.381Z,13.00
2023-10-22T08:05:11.597Z,13.20
2023-10-22T08:07:40.124Z,13.50
2023-10-22T08:10:08.863Z,13.60
2023-10-22T08:12:37.185Z,13.70
2023-10-22T08:15:05.882Z,13.90
2023-10-22T08:17:35.356Z,14.20
2023-10-22T08:20:03.476Z,14.60
2023-10-22T08:22:31.996Z,15.00
2023-10-22T08:25:00.003Z,15.40
2023-10-22T08:27:28.059Z,15.80
2023-10-22T08:29:56.532Z,16.10
2023-10-22T08:32:24.692Z,16.60
2023-10-22T08:34:54.184Z,17.00
2023-10-22T08:37:22.307Z,17.30
2023-10-22T08:39:51.116Z,17.30
2023-10-22T08:42:25.033Z,17.20
2023-10-22T08:44:53.536Z,16.90
2023-10-22T08:47:22.285Z,16.40
2023-10-22T08:49:51.299Z,16.20
2023-10-22T08:52:20.853Z,16.10
2023-10-22T08:54:49.211Z,15.70
2023-10-22T08:57:18.584Z,15.50
2023-10-22T08:59:47.273Z,15.50
2023-10-22T09:02:16.565Z,15.50
2023-10-22T09:04:44.940Z,15.50
2023-10-22T09:07:13.114Z,15.40
2023-10-22T09:09:42.731Z,15.30
2023-10-22T09:12:12.065Z,15.20
2023-10-22T09:14:40.512Z,15.10
2023-10-22T09:17:17.602Z,15.00
2023-10-22T09:19:48.349Z,14.90
2023-10-22T09:22:24.311Z,14.80
2023-10-22T09:24:56.794Z,15.00
2023-10-22T09:27:26.437Z,15.10
2023-10-22T09:29:55.719Z,15.20
2023-10-22T09:32:24.143Z,15.20
2023-10-22T09:34:52.290Z,15.30
2023-10-22T09:37:20.433Z,15.60
2023-10-22T09:39:48.822Z,15.90
2023-10-22T09:42:18.636Z,16.00
2023-10-22T09:44:46.966Z,16.00
2023-10-22T09:47:20.585Z,16.20
2023-10-22T09:49:54.030Z,16.30
2023-10-22T09:52:24.781Z,16.20
2023-10-22T09:54:55.909Z,16.10
2023-10-22T09:57:30.984Z,16.10
2023-10-22T10:00:05.615Z,15.90
2023-10-22T10:02:36.575Z,16.20
2023-10-22T10:05:05.454Z,16.70
2023-10-22T10:07:34.180Z,17.10
2023-10-22T10:10:06.581Z,17.40
2023-10-22T10:12:38.041Z,17.70
2023-10-22T10:15:07.661Z,18.10
2023-10-22T10:17:53.259Z,18.40
2023-10-22T10:20:29.468Z,18.70
2023-10-22T10:23:06.581Z,19.10
2023-10-22T10:25:35.945Z,19.30
2023-10-22T10:28:07.194Z,19.50
2023-10-22T10:30:36.088Z,19.50
2023-10-22T10:33:15.686Z,19.50
2023-10-22T10:35:47.369Z,19.50
2023-10-22T10:38:26.082Z,19.40
2023-10-22T10:40:56.806Z,19.20
2023-10-22T10:44:01.896Z,18.90
2023-10-22T10:46:33.521Z,18.80
2023-10-22T10:49:09.176Z,18.70
2023-10-22T10:51:37.422Z,18.60
2023-10-22T10:54:21.356Z,18.40
2023-10-22T10:56:52.416Z,18.30
2023-10-22T10:59:32.867Z,18.30
2023-10-22T11:02:07.497Z,18.10
2023-10-22T11:04:37.598Z,18.00
2023-10-22T11:07:22.390Z,17.60
2023-10-22T11:09:54.959Z,17.50
2023-10-22T11:12:24.209Z,17.60
2023-10-22T11:14:57.869Z,17.50
2023-10-22T11:17:28.173Z,17.40
2023-10-22T11:19:56.324Z,17.20
2023-10-22T11:22:24.593Z,17.00
2023-10-22T11:24:54.081Z,17.00
2023-10-22T11:27:22.703Z,16.80
2023-10-22T11:29:51.511Z,16.80
2023-10-22T11:32:20.571Z,16.80
2023-10-22T11:34:51.229Z,16.40
2023-10-22T11:37:23.781Z,16.20
2023-10-22T11:39:52.449Z,16.10
2023-10-22T11:42:20.759Z,16.20
2023-10-22T11:44:48.907Z,16.20
2023-10-22T11:47:28.518Z,16.10
2023-10-22T11:49:58.322Z,15.90
2023-10-22T11:52:49.990Z,15.80
2023-10-22T11:55:32.883Z,15.90
2023-10-22T11:58:04.643Z,16.00
2023-10-22T12:00:32.834Z,16.00
2023-10-22T12:03:01.241Z,15.90
2023-10-22T12:05:31.799Z,15.80
2023-10-22T12:08:00.009Z,15.60
2023-10-22T12:10:29.983Z,15.50
2023-10-22T12:12:59.565Z,15.30
2023-10-22T12:15:27.963Z,15.10
2023-10-22T12:17:56.739Z,15.20
2023-10-22T12:20:25.275Z,15.40
2023-10-22T12:22:54.764Z,15.50
2023-10-22T12:25:22.926Z,15.60
2023-10-22T12:27:51.156Z,15.60
2023-10-22T12:30:19.889Z,15.60
2023-10-22T12:32:48.751Z,15.50
2023-10-22T12:35:17.067Z,15.50
2023-10-22T12:37:45.176Z,15.50
2023-10-22T12:40:14.875Z,15.50
2023-10-22T12:42:44.439Z,15.60
2023-10-22T12:45:13.351Z,15.50
2023-10-22T12:47:41.956Z,15.60
2023-10-22T12:50:10.857Z,15.80
2023-10-22T12:52:39.098Z,16.00
2023-10-22T12:55:08.218Z,16.30
2023-10-22T12:57:37.938Z,16.40
2023-10-22T13:00:07.556Z,16.40
2023-10-22T13:02:36.364Z,16.40
2023-10-22T13:05:05.371Z,16.50
2023-10-22T13:07:34.393Z,16.60
2023-10-22T13:10:04.348Z,16.70
2023-10-22T13:12:32.712Z,16.80
2023-10-22T13:15:02.226Z,16.80
2023-10-22T13:17:32.247Z,16.90
2023-10-22T13:20:00.547Z,16.90
2023-10-22T13:22:29.210Z,17.00
2023-10-22T13:24:57.578Z,17.10
2023-10-22T13:27:25.723Z,17.10
2023-10-22T13:29:53.950Z,17.10
2023-10-22T13:32:23.358Z,17.00
2023-10-22T13:34:51.446Z,17.00
2023-10-22T13:37:19.518Z,17.10
2023-10-22T13:39:47.641Z,17.20
2023-10-22T13:42:16.325Z,17.30
2023-10-22T13:44:46.434Z,17.20
2023-10-22T13:47:16.775Z,17.10
2023-10-22T13:49:46.680Z,17.00
2023-10-22T13:52:14.788Z,16.70
2023-10-22T13:54:43.307Z,16.50
2023-10-22T13:57:11.714Z,16.40
2023-10-22T13:59:39.881Z,16.30
2023-10-22T14:02:08.270Z,16.10
2023-10-22T14:04:36.338Z,16.00
2023-10-22T14:07:05.848Z,15.90
2023-10-22T14:09:33.973Z,15.80
2023-10-22T14:12:03.044Z,15.70
2023-10-22T14:14:31.117Z,15.60
2023-10-22T14:16:59.265Z,15.50
2023-10-22T14:19:27.288Z,15.50
2023-10-22T14:21:55.355Z,15.50
2023-10-22T14:24:25.620Z,15.60
2023-10-22T14:27:10.182Z,15.70
2023-10-22T14:29:40.903Z,15.70
2023-10-22T14:32:09.185Z,15.80
2023-10-22T14:34:37.432Z,15.80
2023-10-22T14:37:05.647Z,15.80
2023-10-22T14:39:35.997Z,15.80
2023-10-22T14:42:04.949Z,15.70
2023-10-22T14:44:33.169Z,15.60
2023-10-22T14:47:01.238Z,15.70
2023-10-22T14:49:29.312Z,15.60
2023-10-22T14:51:58.247Z,15.50
2023-10-22T14:54:27.438Z,15.50
2023-10-22T14:56:56.947Z,15.30
2023-10-22T14:59:25.052Z,15.30
2023-10-22T15:01:53.108Z,15.20
2023-10-22T15:04:21.397Z,15.10
2023-10-22T15:06:49.498Z,15.00
2023-10-22T15:09:17.870Z,14.90
2023-10-22T15:11:46.312Z,14.80
2023-10-22T15:14:15.742Z,14.80
2023-10-22T15:16:44.472Z,14.80
2023-10-22T15:19:12.859Z,14.70
2023-10-22T15:21:40.983Z,14.60
2023-10-22T15:24:12.632Z,14.60
2023-10-22T15:26:40.739Z,14.50
2023-10-22T15:29:08.882Z,14.50
2023-10-22T15:31:39.825Z,14.50
2023-10-22T15:34:07.997Z,14.50
2023-10-22T15:36:36.234Z,14.40
2023-10-22T15:39:04.660Z,14.40
2023-10-22T15:41:32.742Z,14.40
2023-10-22T15:44:01.048Z,14.40
2023-10-22T15:46:29.444Z,14.40
2023-10-22T15:48:59.093Z,14.50
2023-10-22T15:51:30.721Z,14.50
2023-10-22T15:53:59.574Z,14.40
2023-10-22T15:56:27.729Z,14.40
2023-10-22T15:58:56.895Z,14.40
2023-10-22T16:01:25.434Z,14.30
2023-10-22T16:03:53.758Z,14.30
2023-10-22T16:06:23.180Z,14.30
2023-10-22T16:08:51.248Z,14.20
2023-10-22T16:11:19.355Z,14.20
2023-10-22T16:13:47.463Z,14.10
2023-10-22T16:16:15.766Z,14.10
2023-10-22T16:18:43.977Z,14.10
2023-10-22T16:21:12.427Z,14.00
2023-10-22T16:23:44.571Z,14.00
2023-10-22T16:26:13.398Z,13.90
2023-10-22T16:28:41.491Z,13.90
2023-10-22T16:31:09.765Z,13.80
2023-10-22T16:33:37.959Z,13.70
2023-10-22T16:36:07.945Z,13.70
2023-10-22T16:38:36.023Z,13.70
2023-10-22T16:41:09.277Z,13.70
2023-10-22T16:43:37.662Z,13.60
2023-10-22T16:46:06.400Z,13.60
2023-10-22T16:48:34.584Z,13.60
2023-10-22T16:51:03.946Z,13.50
2023-10-22T16:53:32.340Z,13.50
2023-10-22T16:56:02.707Z,13.50
2023-10-22T16:58:33.710Z,13.40
2023-10-22T17:01:06.111Z,13.40
2023-10-22T17:03:34.910Z,13.40
2023-10-22T17:06:03.468Z,13.40
2023-10-22T17:08:31.573Z,13.30
2023-10-22T17:10:59.641Z,13.30
2023-10-22T17:13:27.775Z,13.30
2023-10-22T17:15:59.862Z,13.30
2023-10-22T17:18:38.806Z,13.30
2023-10-22T17:21:10.552Z,13.20
2023-10-22T17:23:41.377Z,13.20
2023-10-22T17:26:12.050Z,13.20
2023-10-22T17:28:40.456Z,13.20
2023-10-22T17:31:15.954Z,13.20
2023-10-22T17:36:15.240Z,13.20
2023-10-22T17:38:43.745Z,13.20
2023-10-22T17:41:12.035Z,13.20
2023-10-22T17:43:41.145Z,13.20
2023-10-22T17:46:09.407Z,13.10
2023-10-22T17:48:41.191Z,13.10
2023-10-22T17:51:10.849Z,13.00
2023-10-22T17:53:39.033Z,12.90
2023-10-22T17:56:10.588Z,13.00
2023-10-22T17:58:39.845Z,12.90
2023-10-22T18:01:08.157Z,12.90
2023-10-22T18:03:37.894Z,12.80
2023-10-22T18:06:08.410Z,12.80
2023-10-22T18:08:36.781Z,12.80
2023-10-22T18:11:05.589Z,12.80
2023-10-22T18:13:33.841Z,12.80
2023-10-22T18:16:01.956Z,12.80
2023-10-22T18:18:30.290Z,12.90
2023-10-22T18:21:04.691Z,12.80
2023-10-22T18:23:34.422Z,12.80
2023-10-22T18:26:03.689Z,12.80
2023-10-22T18:28:32.096Z,12.80
2023-10-22T18:31:00.619Z,12.80
2023-10-22T18:33:28.938Z,12.80
2023-10-22T18:36:00.669Z,12.80
2023-10-22T18:38:30.613Z,12.80
2023-10-22T18:41:10.002Z,12.80
2023-10-22T18:43:39.173Z,12.90
2023-10-22T18:46:07.071Z,12.80
2023-10-22T18:48:35.487Z,12.80
2023-10-22T18:51:04.842Z,12.70
2023-10-22T18:53:33.704Z,12.70
2023-10-22T18:56:04.221Z,12.70
2023-10-22T18:58:36.368Z,12.70
2023-10-22T19:01:12.665Z,12.80
2023-10-22T19:03:41.367Z,12.80
2023-10-22T19:06:10.663Z,12.70
2023-10-22T19:08:41.308Z,12.70
2023-10-22T19:11:09.807Z,12.80
2023-10-22T19:13:40.077Z,12.70
2023-10-22T19:16:17.668Z,12.70
2023-10-22T19:18:46.288Z,12.70
2023-10-22T19:21:18.009Z,12.70
2023-10-22T19:23:47.324Z,12.70
2023-10-22T19:26:17.195Z,12.70
2023-10-22T19:28:51.296Z,12.70
2023-10-22T19:31:22.238Z,12.70
2023-10-22T19:33:53.724Z,12.70
2023-10-22T19:36:45.471Z,12.70
2023-10-22T19:39:21.823Z,12.70
2023-10-22T19:41:52.396Z,12.70
2023-10-22T19:44:23.686Z,12.70
2023-10-22T19:46:53.261Z,12.70
2023-10-22T19:49:22.010Z,12.70
2023-10-22T19:52:02.303Z,12.70
2023-10-22T19:54:32.676Z,12.80
2023-10-22T19:57:07.603Z,12.80
2023-10-22T19:59:37.743Z,12.80
2023-10-22T20:02:17.456Z,12.80
2023-10-22T20:04:47.045Z,12.80
2023-10-22T20:07:15.646Z,12.80
2023-10-22T20:09:44.988Z,12.80
2023-10-22T20:12:13.087Z,12.70
2023-10-22T20:14:44.257Z,12.70
2023-10-22T20:17:12.914Z,12.60
2023-10-22T20:19:44.270Z,12.60
2023-10-22T20:22:13.847Z,12.50
2023-10-22T20:24:43.313Z,12.50
2023-10-22T20:27:11.761Z,12.50
2023-10-22T20:29:41.358Z,12.50
2023-10-22T20:32:12.641Z,12.60
2023-10-22T20:34:47.359Z,12.50
2023-10-22T20:37:16.371Z,12.50
2023-10-22T20:39:45.537Z,12.60
2023-10-22T20:42:14.184Z,12.60
2023-10-22T20:44:43.498Z,12.60
2023-10-22T20:47:17.796Z,12.60
2023-10-22T20:49:45.929Z,12.60
2023-10-22T20:52:14.138Z,12.60
2023-10-22T20:54:43.547Z,12.60
2023-10-22T20:57:18.437Z,12.60
2023-10-22T20:59:47.128Z,12.60
2023-10-22T21:02:17.838Z,12.60
2023-10-22T21:04:46.521Z,12.60
2023-10-22T21:07:16.050Z,12.60
2023-10-22T21:09:49.758Z,12.60
2023-10-22T21:12:18.561Z,12.60
2023-10-22T21:14:50.436Z,12.60
2023-10-22T21:17:23.058Z,12.60
2023-10-22T21:19:51.070Z,12.60
2023-10-22T21:22:19.856Z,12.60
2023-10-22T21:24:48.768Z,12.50
2023-10-22T21:27:18.148Z,12.50
2023-10-22T21:29:52.816Z,12.50
2023-10-22T21:32:24.513Z,12.50
2023-10-22T21:34:54.208Z,12.50
2023-10-22T21:37:26.198Z,12.50
2023-10-22T21:40:00.122Z,12.40
2023-10-22T21:42:28.303Z,12.40
2023-10-22T21:45:01.102Z,12.40
2023-10-22T21:47:33.697Z,12.30
2023-10-22T21:50:03.822Z,12.30
2023-10-22T21:52:32.726Z,12.20
2023-10-22T21:55:02.252Z,12.20
2023-10-22T21:57:31.943Z,12.20
2023-10-22T22:00:01.693Z,12.10
2023-10-22T22:02:41.843Z,12.10
2023-10-22T22:05:10.373Z,12.00
2023-10-22T22:07:44.709Z,12.00
2023-10-22T22:10:13.406Z,12.00
2023-10-22T22:12:46.009Z,12.00
2023-10-22T22:15:20.127Z,12.00
2023-10-22T22:17:50.996Z,12.00
2023-10-22T22:20:20.001Z,12.10
2023-10-22T22:22:48.256Z,12.10
2023-10-22T22:25:17.813Z,12.00
2023-10-22T22:27:47.567Z,12.10
2023-10-22T22:30:15.974Z,12.10
2023-10-22T22:32:44.284Z,12.00
2023-10-22T22:35:13.903Z,12.10
2023-10-22T22:37:42.198Z,12.10
2023-10-22T22:40:11.442Z,12.10
2023-10-22T22:42:39.766Z,12.10
2023-10-22T22:45:09.837Z,12.10
2023-10-22T22:47:38.469Z,12.00
2023-10-22T22:50:08.204Z,12.10
2023-10-22T22:52:37.858Z,12.10
2023-10-22T22:55:07.060Z,12.10
2023-10-22T22:57:35.626Z,12.10
2023-10-22T23:00:05.085Z,12.10
2023-10-22T23:02:34.077Z,12.00
2023-10-22T23:05:05.276Z,12.00
2023-10-22T23:07:36.890Z,12.00
2023-10-22T23:19:01.884Z,11.90
2023-10-22T23:21:45.980Z,11.80
2023-10-22T23:24:23.336Z,11.80
2023-10-22T23:26:51.870Z,11.80
2023-10-22T23:29:20.499Z,11.70
2023-10-22T23:31:55.467Z,11.70
2023-10-22T23:34:27.802Z,11.70
2023-10-22T23:37:00.464Z,11.60
2023-10-22T23:39:28.996Z,11.60
2023-10-22T23:42:02.743Z,11.60
2023-10-22T23:45:17.200Z,11.60
2023-10-22T23:48:14.694Z,11.50
2023-10-22T23:54:36.226Z,11.40
2023-10-22T23:57:14.667Z,11.40
2023-10-22T23:59:43.274Z,11.40
